Time;durP1;ratioP1;P1;durP2;ratioP2;P2;SDS_P1;SDS_P2;PMS_P1;PMS_P2;Temp;Humidity;BMP_temperature;BMP_pressure;BME280_temperature;BME280_humidity;BME280_pressure;Samples;Min_cycle;Max_cycle;Signal;HPM_P1;HPM_P2
2022/07/25 15:42:54;;;;;;;8.27;7.57;;;40.20;24.70;;;35.65;27.25;95078.09;5032651;28;20172;-48
2022/07/25 15:45:24;;;;;;;9.43;8.63;;;39.80;25.10;;;35.78;27.35;95083.66;5024760;28;20456;-53
2022/07/25 15:47:56;;;;;;;9.57;8.52;;;40.20;24.80;;;35.74;26.57;95076.69;5023097;28;20025;-52
2022/07/25 15:50:25;;;;;;;11.13;7.68;;;41.20;24.20;;;35.78;26.82;95071.81;5019461;28;20392;-50
2022/07/25 15:52:50;;;;;;;8.48;7.53;;;41.90;23.60;;;35.86;27.00;95070.41;5022432;28;20416;-53
2022/07/25 15:55:22;;;;;;;8.40;7.60;;;42.20;23.30;;;35.57;27.53;95074.00;5020546;28;20040;-51
2022/07/25 15:57:50;;;;;;;9.98;7.82;;;42.40;23.10;;;35.54;27.32;95068.53;5025333;28;20036;-53
2022/07/25 16:00:27;;;;;;;9.48;8.70;;;42.60;22.90;;;35.57;27.05;95064.91;5025794;28;20025;-52
2022/07/25 16:02:53;;;;;;;10.25;8.82;;;43.30;22.60;;;36.23;26.29;95074.44;5023307;28;20044;-54
2022/07/25 16:05:23;;;;;;;11.02;10.15;;;44.90;21.80;;;36.68;26.15;95067.06;5012422;28;20025;-53
2022/07/25 16:07:51;;;;;;;11.13;10.23;;;46.70;20.90;;;37.32;25.04;95052.97;5022243;28;20033;-52
2022/07/25 16:10:20;;;;;;;10.88;9.48;;;48.10;20.00;;;37.77;24.75;95065.66;5025733;28;20070;-52
2022/07/25 16:12:49;;;;;;;9.07;8.10;;;48.90;19.50;;;37.52;24.86;95055.47;5026186;28;20020;-53
2022/07/25 16:15:28;;;;;;;9.95;8.07;;;48.60;19.30;;;37.28;25.03;95067.00;5021360;28;20128;-52
2022/07/25 16:17:55;;;;;;;11.85;8.70;;;47.60;19.60;;;36.97;26.07;95075.97;5035206;28;20421;-52
2022/07/25 16:20:21;;;;;;;9.45;8.45;;;46.50;20.10;;;36.73;25.28;95055.38;5024197;28;20025;-56
2022/07/25 16:22:54;;;;;;;8.35;7.60;;;45.80;20.30;;;36.29;25.86;95066.31;5025239;28;20496;-48
2022/07/25 16:25:28;;;;;;;9.90;7.72;;;45.30;20.50;;;36.22;26.26;95063.78;5023607;28;20052;-50
2022/07/25 16:27:57;;;;;;;9.70;8.77;;;44.80;20.80;;;36.36;26.52;95069.66;5026026;28;20525;-51
2022/07/25 16:30:35;;;;;;;8.73;7.97;;;44.80;20.80;;;36.14;26.51;95066.78;5022667;28;20790;-51
2022/07/25 16:33:07;;;;;;;10.13;9.05;;;45.00;20.80;;;36.45;26.08;95066.19;5020957;28;20034;-48
2022/07/25 16:35:34;;;;;;;10.05;8.93;;;45.30;20.80;;;36.76;25.50;95071.94;5024822;28;20044;-55
2022/07/25 16:38:03;;;;;;;10.25;9.25;;;46.40;20.30;;;37.13;25.42;95080.59;5024793;28;20423;-48
2022/07/25 16:40:29;;;;;;;12.10;11.02;;;47.60;19.60;;;37.35;24.93;95077.84;5026009;28;20140;-53
2022/07/25 16:43:04;;;;;;;11.05;10.15;;;48.80;19.00;;;37.74;24.35;95082.00;5021773;28;20132;-51
2022/07/25 16:45:30;;;;;;;11.52;10.73;;;49.70;18.40;;;37.76;24.39;95081.53;5018252;28;20631;-50
2022/07/25 16:47:56;;;;;;;11.65;10.85;;;50.60;18.00;;;37.93;24.38;95082.88;5021286;28;20066;-48
2022/07/25 16:50:22;;;;;;;12.98;11.88;;;51.10;17.70;;;37.59;24.49;95094.09;5033969;28;20044;-56
2022/07/25 16:52:57;;;;;;;12.43;11.23;;;51.40;17.30;;;37.90;24.46;95091.34;5015272;28;20029;-50
2022/07/25 16:55:22;;;;;;;12.60;11.00;;;51.70;17.10;;;37.66;24.64;95094.59;5013201;28;20584;-50
2022/07/25 16:57:48;;;;;;;12.52;11.48;;;51.90;17.00;;;37.76;24.63;95095.41;5008783;28;20037;-49
2022/07/25 17:00:18;;;;;;;55.15;43.95;;;52.00;16.80;;;38.06;24.03;95093.13;5011761;28;20021;-49
2022/07/25 17:02:50;;;;;;;13.32;11.25;;;51.90;16.70;;;38.25;24.04;95099.56;5009043;28;20052;-49
2022/07/25 17:05:22;;;;;;;11.07;9.93;;;51.70;16.80;;;37.56;24.74;95097.78;5012752;28;20025;-49
2022/07/25 17:07:57;;;;;;;9.85;8.95;;;51.60;16.80;;;37.49;24.74;95101.59;5012068;28;20056;-51
2022/07/25 17:10:23;;;;;;;9.10;8.30;;;51.10;16.90;;;37.39;24.73;95099.91;5008240;28;20133;-47
2022/07/25 17:12:49;;;;;;;7.88;7.25;;;50.70;17.00;;;37.49;24.99;95107.91;5010457;28;20559;-49
2022/07/25 17:15:15;;;;;;;7.70;6.97;;;49.80;17.30;;;36.49;25.81;95111.22;5026780;28;20029;-49
2022/07/25 17:17:44;;;;;;;10.27;7.97;;;48.40;17.90;;;35.87;26.98;95111.50;5008473;28;20412;-48
2022/07/25 17:20:11;;;;;;;8.32;7.32;;;46.80;18.80;;;35.32;27.97;95109.88;4991599;28;20029;-49
2022/07/25 17:22:37;;;;;;;7.97;7.28;;;45.30;19.50;;;34.90;28.43;95107.00;4994556;28;20033;-52
2022/07/25 17:25:04;;;;;;;8.23;7.53;;;44.00;20.40;;;34.28;29.33;95104.13;5005060;28;20037;-54
2022/07/25 17:27:36;;;;;;;8.23;7.38;;;42.90;21.20;;;33.92;29.99;95115.19;5007394;28;20030;-48
2022/07/25 17:30:03;;;;;;;9.73;7.20;;;42.00;22.00;;;33.93;30.23;95117.50;5005513;28;20029;-52
2022/07/25 17:32:29;;;;;;;8.82;7.63;;;41.20;22.60;;;33.28;31.07;95108.94;4990601;28;20649;-47
2022/07/25 17:35:00;;;;;;;7.72;6.80;;;40.40;23.20;;;32.94;31.73;95104.44;5002720;28;20029;-49
2022/07/25 17:37:26;;;;;;;7.63;6.93;;;39.80;23.80;;;32.71;32.12;95111.50;5007951;28;20108;-53
2022/07/25 17:39:53;;;;;;;8.25;7.10;;;39.20;24.20;;;32.54;32.72;95109.03;5010642;28;20109;-47
2022/07/25 17:42:28;;;;;;;10.07;6.85;;;38.80;24.80;;;32.33;32.84;95112.88;4994333;28;20048;-51
2022/07/25 17:44:56;;;;;;;9.10;7.30;;;38.40;25.30;;;32.09;33.30;95106.53;4992314;28;20022;-50
2022/07/25 17:47:36;;;;;;;8.32;6.57;;;38.00;25.60;;;32.10;33.66;95116.38;5011194;28;20021;-47
2022/07/25 17:50:05;;;;;;;7.50;6.75;;;37.70;26.00;;;31.95;33.65;95121.28;5007300;28;20021;-49
2022/07/25 17:52:40;;;;;;;8.02;6.85;;;37.40;26.30;;;31.87;33.69;95123.34;5002182;28;20036;-48
2022/07/25 17:55:19;;;;;;;10.15;6.82;;;37.20;26.60;;;31.88;34.19;95132.38;5011556;28;20021;-48
2022/07/25 17:57:45;;;;;;;7.15;6.53;;;37.00;27.00;;;31.51;33.89;95117.50;4993271;28;20053;-48
2022/07/25 18:00:14;;;;;;;8.57;7.00;;;36.70;27.10;;;31.52;34.09;95130.81;5011938;28;20056;-47
2022/07/25 18:02:50;;;;;;;7.55;6.75;;;36.50;27.30;;;31.36;34.11;95136.13;4986351;28;20120;-47
2022/07/25 18:05:19;;;;;;;7.32;6.20;;;36.30;27.50;;;31.00;34.27;95138.47;5009516;28;20533;-47
2022/07/25 18:07:53;;;;;;;8.55;6.07;;;36.00;27.60;;;30.89;33.92;95147.56;5007906;28;20033;-46
2022/07/25 18:10:22;;;;;;;8.98;5.93;;;35.80;27.70;;;30.83;34.22;95157.44;5014920;28;20029;-48
2022/07/25 18:12:49;;;;;;;7.90;6.25;;;35.50;27.80;;;30.64;34.23;95161.50;5007860;28;20029;-52
2022/07/25 18:15:16;;;;;;;12.07;7.45;;;35.30;28.00;;;30.43;34.53;95156.94;5005384;28;20025;-50
2022/07/25 18:17:45;;;;;;;9.40;6.43;;;35.00;28.10;;;30.29;34.79;95154.28;5022125;28;20049;-48
2022/07/25 18:20:16;;;;;;;14.02;6.07;;;34.80;28.40;;;30.02;34.83;95150.50;4997556;28;20036;-48
2022/07/25 18:22:48;;;;;;;8.13;6.05;;;34.50;28.50;;;29.81;34.75;95160.41;5009267;28;20510;-47
2022/07/25 18:25:40;;;;;;;7.03;5.75;;;34.20;28.60;;;29.51;34.69;95145.19;5007648;28;20026;-50
2022/07/25 18:28:06;;;;;;;6.87;6.10;;;33.90;29.20;;;29.47;34.97;95141.69;5003225;28;20033;-51
2022/07/25 18:30:40;;;;;;;7.43;5.60;;;33.70;28.70;;;29.33;35.21;95151.91;5011195;28;20279;-50
2022/07/25 18:33:15;;;;;;;6.47;5.60;;;33.50;29.00;;;29.22;35.34;95151.97;4996323;28;20379;-51
2022/07/25 18:35:42;;;;;;;6.28;5.65;;;33.30;29.10;;;29.01;35.27;95150.81;4997669;28;20029;-48
2022/07/25 18:38:10;;;;;;;11.05;5.50;;;33.10;29.20;;;28.98;35.58;95151.56;5010157;28;20441;-51
2022/07/25 18:40:39;;;;;;;8.38;6.07;;;32.80;29.40;;;28.89;35.97;95151.19;5010859;28;20113;-51
2022/07/25 18:43:11;;;;;;;7.80;6.07;;;32.70;29.70;;;28.77;36.11;95151.59;5007547;28;20025;-50
2022/07/25 18:45:38;;;;;;;12.45;5.60;;;32.50;29.90;;;28.60;36.58;95144.94;5009050;28;20472;-46
2022/07/25 18:48:05;;;;;;;9.43;5.82;;;32.30;30.00;;;28.46;36.69;95148.47;5011475;28;20442;-52
2022/07/25 18:50:34;;;;;;;6.47;5.28;;;32.20;30.10;;;28.30;37.34;95154.28;5010000;28;20025;-46
2022/07/25 18:53:03;;;;;;;8.52;5.65;;;32.00;30.30;;;28.21;37.21;95156.63;5013043;28;20029;-47
2022/07/25 18:55:29;;;;;;;7.20;5.68;;;31.90;30.70;;;28.10;37.48;95164.00;5010920;28;20039;-52
2022/07/25 19:00:57;;;;;;;7.40;5.15;;;31.60;31.20;;;27.96;37.89;95167.50;5010930;28;20130;-47
2022/07/25 19:03:26;;;;;;;6.78;5.03;;;31.40;31.20;;;27.80;38.26;95170.59;5008886;28;20104;-47
2022/07/25 19:05:53;;;;;;;6.75;5.50;;;31.30;31.50;;;27.77;38.32;95184.22;5010664;28;20159;-49
2022/07/25 19:08:22;;;;;;;6.20;4.97;;;31.20;31.60;;;27.74;38.27;95188.50;5009809;28;20021;-46
2022/07/25 19:10:51;;;;;;;8.40;5.53;;;31.10;31.90;;;27.67;38.36;95191.19;5010672;28;20468;-50
2022/07/25 19:13:17;;;;;;;8.98;5.30;;;31.00;32.00;;;27.54;38.69;95190.75;5005726;28;20140;-49
2022/07/25 19:15:43;;;;;;;10.30;5.63;;;30.90;32.10;;;27.50;38.70;95187.22;5006475;28;20041;-51
2022/07/25 19:18:15;;;;;;;9.63;5.20;;;30.80;32.20;;;27.46;38.96;95200.09;5006077;28;20029;-46
2022/07/25 19:20:44;;;;;;;7.95;4.55;;;30.80;32.50;;;27.40;39.00;95212.56;5000324;28;20068;-46
2022/07/25 19:23:10;;;;;;;6.72;5.47;;;30.70;32.60;;;27.32;39.20;95210.94;5007190;28;20546;-51
2022/07/25 19:25:36;;;;;;;6.40;4.85;;;30.60;32.80;;;27.24;39.47;95209.34;5005191;28;20028;-47
2022/07/25 19:28:05;;;;;;;6.68;4.78;;;30.50;32.90;;;27.19;39.79;95226.88;5001832;28;20032;-46
2022/07/25 19:30:31;;;;;;;5.60;4.97;;;30.40;33.20;;;27.15;39.97;95250.66;5010563;28;20025;-50
2022/07/25 19:32:57;;;;;;;7.18;5.22;;;30.40;33.30;;;27.06;40.20;95252.91;5011825;28;20035;-46
2022/07/25 19:35:29;;;;;;;10.05;5.75;;;30.30;33.50;;;27.06;40.17;95250.97;5023692;28;20025;-47
2022/07/25 19:37:57;;;;;;;5.45;4.95;;;30.30;33.70;;;27.03;40.38;95261.88;5008216;28;20136;-46
2022/07/25 19:40:23;;;;;;;7.47;5.10;;;30.30;33.80;;;27.06;40.42;95266.59;5009923;28;20040;-50
2022/07/25 19:42:51;;;;;;;6.13;5.45;;;30.20;33.90;;;27.04;40.57;95283.34;5008453;28;20033;-49
2022/07/25 19:45:20;;;;;;;6.03;5.25;;;30.20;34.00;;;26.99;40.71;95280.97;5013698;28;20588;-47
2022/07/25 19:47:46;;;;;;;6.75;5.25;;;30.20;34.20;;;26.89;41.28;95285.19;5009023;28;20029;-49
2022/07/25 19:50:12;;;;;;;7.10;5.40;;;30.20;34.40;;;26.87;41.72;95282.03;5004182;28;20028;-50
2022/07/25 19:52:38;;;;;;;5.85;5.25;;;30.10;34.60;;;26.75;42.27;95287.78;5008295;28;20120;-48
2022/07/25 19:55:05;;;;;;;6.72;5.70;;;30.10;34.90;;;26.70;42.33;95291.66;5008515;28;20032;-50
2022/07/25 19:57:31;;;;;;;12.45;5.97;;;30.00;35.00;;;26.68;42.72;95301.38;5005350;28;20468;-46
2022/07/25 20:00:00;;;;;;;6.97;5.20;;;30.00;35.30;;;26.57;43.01;95303.97;5004667;28;20388;-46
2022/07/25 20:02:26;;;;;;;9.32;5.25;;;29.90;35.60;;;26.50;43.42;95298.44;4986580;28;20014;-46
2022/07/25 20:04:54;;;;;;;8.05;5.38;;;29.80;35.70;;;26.40;43.66;95310.78;5007515;28;20030;-45
2022/07/25 20:07:21;;;;;;;9.90;5.60;;;29.70;35.90;;;26.30;44.14;95319.66;5009176;28;20036;-48
2022/07/25 20:09:49;;;;;;;6.47;4.97;;;29.60;36.20;;;26.23;44.39;95320.34;4992099;28;20116;-50
2022/07/25 20:12:18;;;;;;;7.43;5.10;;;29.50;36.40;;;26.09;44.69;95328.34;4994792;28;20040;-46
2022/07/25 20:14:46;;;;;;;10.30;5.65;;;29.40;36.70;;;25.93;45.06;95322.31;5005806;28;20494;-48
2022/07/25 20:17:18;;;;;;;6.85;5.13;;;29.30;36.90;;;25.78;46.00;95324.00;5006510;28;20421;-46
2022/07/25 20:19:44;;;;;;;6.80;5.32;;;29.20;37.40;;;25.72;46.30;95336.38;5021996;28;20021;-48
2022/07/25 20:22:10;;;;;;;7.90;5.22;;;29.10;37.40;;;25.59;46.50;95322.19;5007260;28;20538;-46
2022/07/25 20:24:36;;;;;;;9.43;5.57;;;29.00;37.80;;;25.54;46.95;95322.47;4993719;28;20774;-45
2022/07/25 20:27:03;;;;;;;9.88;5.57;;;28.90;38.00;;;25.48;47.09;95337.56;4952120;28;20029;-46
2022/07/25 20:29:28;;;;;;;7.53;4.47;;;28.80;38.20;;;25.44;46.83;95336.75;5025175;28;20060;-46
2022/07/25 20:31:58;;;;;;;7.30;4.95;;;28.80;38.40;;;25.39;47.34;95341.38;5026366;28;20112;-51
2022/07/25 20:34:24;;;;;;;9.63;5.57;;;28.70;38.70;;;25.33;47.81;95329.19;5027560;28;20222;-47
2022/07/25 20:36:53;;;;;;;5.80;5.20;;;28.60;38.80;;;25.27;47.88;95330.66;4995968;28;20108;-47
2022/07/25 20:39:19;;;;;;;7.55;5.53;;;28.50;39.10;;;25.20;47.89;95338.72;5028539;28;20029;-49
2022/07/25 20:41:46;;;;;;;11.70;5.80;;;28.50;39.20;;;25.14;48.04;95340.19;5032561;28;20508;-45
2022/07/25 20:44:14;;;;;;;7.68;5.63;;;28.40;39.40;;;25.07;48.62;95345.47;5010881;28;20112;-45
2022/07/25 20:46:40;;;;;;;7.60;5.72;;;28.30;39.60;;;25.01;48.77;95349.63;5020701;28;20032;-46
2022/07/25 20:49:07;;;;;;;10.57;6.00;;;28.30;39.80;;;24.93;49.10;95360.41;5021399;28;20025;-46
2022/07/25 20:51:40;;;;;;;8.07;5.60;;;28.20;40.00;;;24.83;49.18;95366.47;5013627;28;20517;-52
2022/07/25 20:54:09;;;;;;;7.00;5.10;;;28.10;40.20;;;24.80;49.05;95369.13;5031811;28;20032;-47
2022/07/25 20:56:35;;;;;;;8.20;5.70;;;28.00;40.30;;;24.79;49.34;95364.81;5031745;28;20029;-50
2022/07/25 20:59:05;;;;;;;7.38;5.43;;;28.00;40.40;;;24.80;49.36;95363.69;5012140;28;20021;-46
2022/07/25 21:01:31;;;;;;;10.80;5.43;;;28.00;40.60;;;24.80;48.64;95361.72;5025282;28;20029;-48
2022/07/25 21:04:05;;;;;;;8.02;6.13;;;28.00;40.50;;;24.82;49.00;95354.00;5011420;28;20044;-47
2022/07/25 21:06:34;;;;;;;6.10;5.50;;;28.00;40.80;;;24.82;48.90;95361.34;5012400;28;20171;-47
2022/07/25 21:09:07;;;;;;;10.05;5.45;;;28.00;40.70;;;24.79;49.35;95357.44;5031277;28;20028;-50
2022/07/25 21:11:35;;;;;;;8.40;5.25;;;28.00;40.80;;;24.84;48.79;95364.53;5030120;28;20526;-50
2022/07/25 21:14:05;;;;;;;10.82;4.78;;;28.00;40.70;;;24.85;48.79;95364.16;5030505;28;20028;-48
2022/07/25 21:16:32;;;;;;;7.78;5.32;;;28.00;40.90;;;24.86;48.93;95365.75;5032640;28;20473;-49
2022/07/25 21:19:01;;;;;;;9.32;5.13;;;28.00;40.80;;;24.83;48.88;95369.19;5031322;28;20024;-51
2022/07/25 21:21:36;;;;;;;6.13;5.15;;;28.00;40.90;;;24.83;48.69;95382.03;5026184;28;20157;-47
2022/07/25 21:24:10;;;;;;;9.75;5.15;;;28.00;40.90;;;24.83;48.49;95380.06;5023679;28;20414;-46
2022/07/25 21:26:38;;;;;;;7.40;5.20;;;28.00;41.00;;;24.86;48.29;95376.63;5031103;28;20021;-49
2022/07/25 21:29:05;;;;;;;6.28;5.25;;;28.00;40.80;;;24.89;48.56;95378.63;5031002;28;20349;-49
2022/07/25 21:31:32;;;;;;;6.53;4.95;;;28.00;40.80;;;24.91;48.16;95367.38;5010585;28;20044;-49
2022/07/25 21:34:02;;;;;;;10.07;5.30;;;28.00;40.80;;;24.95;48.11;95364.72;5018031;28;20021;-48
2022/07/25 21:36:33;;;;;;;7.85;5.22;;;28.00;40.80;;;24.92;48.15;95367.03;5030047;28;20495;-46
2022/07/25 21:39:03;;;;;;;9.27;5.70;;;28.10;40.80;;;24.90;48.16;95376.69;5020242;28;20036;-46
2022/07/25 21:41:29;;;;;;;10.45;5.38;;;28.00;40.60;;;24.88;48.06;95385.25;5030068;28;20051;-48
2022/07/25 21:44:04;;;;;;;5.68;5.07;;;28.00;40.70;;;24.90;48.13;95382.94;5012363;28;20447;-46
2022/07/25 21:46:30;;;;;;;8.13;5.45;;;28.10;40.80;;;24.91;48.09;95392.69;5014555;28;20028;-46
2022/07/25 21:51:46;;;;;;;8.65;5.63;;;28.10;40.80;;;24.88;48.43;95382.50;5023297;28;20447;-45
2022/07/25 21:54:11;;;;;;;9.45;5.45;;;28.10;40.80;;;24.88;48.42;95387.97;5036253;22;20053;-53
2022/07/25 21:56:40;;;;;;;9.40;5.18;;;28.10;40.80;;;24.87;48.09;95386.38;4996615;28;20484;-49
2022/07/25 21:59:08;;;;;;;8.15;5.75;;;28.10;40.80;;;24.87;48.13;95382.88;4982801;28;20037;-51
2022/07/25 22:01:34;;;;;;;5.85;4.97;;;28.10;40.80;;;24.85;47.99;95385.16;4954976;28;20053;-49
2022/07/25 22:04:00;;;;;;;6.07;5.03;;;28.00;40.70;;;24.80;48.58;95390.91;5001447;28;20117;-55
2022/07/25 22:06:26;;;;;;;6.63;4.93;;;28.00;40.90;;;24.75;48.59;95386.53;4955521;28;20035;-49
2022/07/25 22:08:52;;;;;;;5.80;4.93;;;28.00;41.00;;;24.69;48.63;95394.22;4962886;28;20084;-50
2022/07/25 22:11:22;;;;;;;12.63;5.57;;;27.90;40.90;;;24.66;48.47;95399.56;4984784;28;20018;-51
2022/07/25 22:13:48;;;;;;;12.40;5.50;;;27.90;41.00;;;24.63;48.49;95406.56;4952983;28;20019;-45
2022/07/25 22:16:19;;;;;;;6.13;5.22;;;27.90;41.00;;;24.62;48.33;95409.63;4956249;28;20023;-45
2022/07/25 22:18:45;;;;;;;5.78;4.85;;;27.90;41.00;;;24.60;48.06;95407.28;4968197;28;20030;-47
2022/07/25 22:21:14;;;;;;;9.30;5.35;;;27.80;41.00;;;24.56;47.91;95411.84;4988197;28;20037;-45
2022/07/25 22:23:40;;;;;;;5.65;5.07;;;27.80;40.90;;;24.59;48.02;95411.13;4970647;28;20049;-45
2022/07/25 22:26:09;;;;;;;9.25;4.75;;;27.80;40.90;;;24.59;47.97;95410.34;4970294;28;20049;-45
2022/07/25 22:28:35;;;;;;;8.38;5.07;;;27.80;40.90;;;24.56;47.91;95411.84;4970876;28;20026;-46
2022/07/25 22:31:04;;;;;;;6.07;5.18;;;27.80;40.80;;;24.54;48.19;95416.88;4954924;28;20076;-45
2022/07/25 22:33:33;;;;;;;8.85;5.43;;;27.80;40.90;;;24.50;47.78;95407.81;4967354;28;20049;-52
2022/07/25 22:36:02;;;;;;;6.63;4.47;;;27.80;40.80;;;24.46;48.24;95407.75;4987159;28;20025;-45
2022/07/25 22:38:34;;;;;;;7.82;5.13;;;27.70;40.80;;;24.42;47.87;95415.06;4970082;28;20083;-49
2022/07/25 22:41:00;;;;;;;14.95;5.07;;;27.70;40.80;;;24.39;48.07;95406.81;4972445;28;20511;-46
2022/07/25 22:43:29;;;;;;;5.65;5.05;;;27.70;40.80;;;24.37;48.28;95411.81;4970624;28;20034;-45
2022/07/25 22:46:02;;;;;;;9.55;5.13;;;27.60;40.80;;;24.34;48.59;95413.31;4962819;28;20030;-45
2022/07/25 22:48:28;;;;;;;8.38;5.00;;;27.60;40.90;;;24.35;48.57;95419.53;4967374;28;20027;-45
